createdAt,value
2023-03-29T00:02:07.593Z,86.35
2023-03-29T00:04:34.767Z,86.29
2023-03-29T00:07:04.508Z,86.25
2023-03-29T00:09:33.474Z,86.44
2023-03-29T00:12:01.649Z,86.27
2023-03-29T00:14:31.110Z,86.26
2023-03-29T00:16:59.081Z,86.04
2023-03-29T00:19:26.667Z,86.05
2023-03-29T00:21:53.844Z,86.23
2023-03-29T00:24:21.603Z,86.14
2023-03-29T00:26:48.771Z,86.31
2023-03-29T00:29:16.140Z,86.21
2023-03-29T00:31:46.053Z,86.40
2023-03-29T00:34:13.214Z,86.59
2023-03-29T00:36:40.597Z,86.76
2023-03-29T00:39:07.638Z,86.71
2023-03-29T00:41:34.674Z,86.61
2023-03-29T00:44:03.728Z,86.51
2023-03-29T00:46:32.138Z,86.58
2023-03-29T00:49:07.546Z,86.59
2023-03-29T00:51:38.412Z,86.70
2023-03-29T00:54:14.949Z,86.52
2023-03-29T00:56:47.014Z,86.64
2023-03-29T00:59:23.414Z,86.48
2023-03-29T01:01:54.652Z,86.51
2023-03-29T01:04:37.242Z,86.31
2023-03-29T01:07:14.247Z,86.25
2023-03-29T01:09:45.785Z,86.01
2023-03-29T01:12:20.120Z,85.82
2023-03-29T01:14:56.589Z,85.85
2023-03-29T01:17:25.712Z,85.68
2023-03-29T01:19:59.148Z,85.68
2023-03-29T01:22:40.212Z,85.87
2023-03-29T01:25:19.475Z,85.84
2023-03-29T01:27:53.421Z,85.71
2023-03-29T01:30:30.680Z,85.90
2023-03-29T01:33:06.469Z,85.93
2023-03-29T01:35:44.866Z,85.77
2023-03-29T01:39:05.378Z,85.82
2023-03-29T01:42:13.596Z,85.96
2023-03-29T01:44:47.755Z,85.99
2023-03-29T01:47:26.296Z,86.06
2023-03-29T01:49:58.533Z,86.09
2023-03-29T01:52:33.415Z,86.15
2023-03-29T01:55:10.269Z,86.19
2023-03-29T01:57:41.906Z,86.24
2023-03-29T02:00:14.409Z,86.20
2023-03-29T02:02:43.886Z,86.06
2023-03-29T02:05:13.057Z,86.04
2023-03-29T02:07:42.176Z,85.90
2023-03-29T02:10:11.387Z,85.87
2023-03-29T02:12:38.521Z,85.88
2023-03-29T02:15:10.990Z,85.92
2023-03-29T02:17:38.010Z,85.85
2023-03-29T02:20:33.664Z,85.87
2023-03-29T02:23:09.801Z,85.71
2023-03-29T02:25:38.051Z,85.48
2023-03-29T02:28:06.978Z,85.65
2023-03-29T02:30:44.543Z,85.70
2023-03-29T02:33:17.710Z,85.71
2023-03-29T02:36:17.873Z,85.73
2023-03-29T02:38:45.552Z,85.73
2023-03-29T02:41:13.204Z,85.71
2023-03-29T02:43:42.320Z,85.66
2023-03-29T02:46:11.101Z,85.58
2023-03-29T02:48:38.759Z,85.38
2023-03-29T02:51:19.378Z,85.51
2023-03-29T02:54:01.325Z,85.48
2023-03-29T02:56:28.273Z,85.48
2023-03-29T02:58:55.130Z,85.36
2023-03-29T03:01:23.209Z,85.31
2023-03-29T03:03:50.926Z,85.45
2023-03-29T03:06:18.895Z,85.61
2023-03-29T03:08:45.902Z,85.58
2023-03-29T03:11:12.925Z,85.64
2023-03-29T03:13:39.785Z,85.62
2023-03-29T03:16:08.294Z,85.86
2023-03-29T03:18:35.703Z,85.73
2023-03-29T03:21:02.799Z,85.69
2023-03-29T03:23:30.543Z,85.57
2023-03-29T03:25:58.252Z,85.46
2023-03-29T03:28:27.463Z,85.64
2023-03-29T03:30:55.574Z,85.53
2023-03-29T03:33:58.100Z,85.71
2023-03-29T03:36:48.081Z,86.16
2023-03-29T03:39:15.056Z,86.09
2023-03-29T03:41:42.980Z,86.08
2023-03-29T03:44:10.036Z,86.63
2023-03-29T03:46:37.013Z,86.61
2023-03-29T03:49:05.930Z,86.72
2023-03-29T03:51:37.781Z,86.47
2023-03-29T03:54:05.137Z,86.12
2023-03-29T03:56:34.630Z,86.01
2023-03-29T03:59:04.869Z,85.52
2023-03-29T04:01:43.555Z,85.98
2023-03-29T04:04:17.136Z,86.12
2023-03-29T04:07:03.063Z,86.19
2023-03-29T04:09:39.000Z,86.06
2023-03-29T04:12:36.798Z,86.04
2023-03-29T04:15:04.413Z,86.03
2023-03-29T04:17:31.315Z,86.64
2023-03-29T04:20:02.317Z,86.48
2023-03-29T04:22:33.334Z,86.11
2023-03-29T04:25:00.308Z,86.25
2023-03-29T04:27:29.986Z,86.20
2023-03-29T04:29:58.789Z,86.60
2023-03-29T04:32:48.908Z,86.64
2023-03-29T04:35:17.944Z,86.36
2023-03-29T04:37:44.932Z,86.20
2023-03-29T04:40:15.057Z,86.12
2023-03-29T04:42:52.911Z,85.74
2023-03-29T04:45:20.418Z,86.03
2023-03-29T04:48:04.017Z,86.02
2023-03-29T04:50:32.092Z,85.87
2023-03-29T04:53:00.422Z,85.81
2023-03-29T04:55:29.471Z,85.69
2023-03-29T04:58:01.283Z,85.72
2023-03-29T05:00:33.845Z,85.72
2023-03-29T05:03:00.864Z,85.74
2023-03-29T05:05:31.420Z,85.47
2023-03-29T05:08:01.764Z,85.38
2023-03-29T05:10:37.469Z,85.45
2023-03-29T05:13:04.747Z,84.96
2023-03-29T05:15:32.817Z,85.38
2023-03-29T05:18:00.963Z,85.67
2023-03-29T05:20:28.673Z,85.70
2023-03-29T05:22:57.489Z,85.67
2023-03-29T05:25:43.942Z,85.48
2023-03-29T05:28:11.028Z,85.62
2023-03-29T05:30:38.216Z,85.84
2023-03-29T05:33:13.871Z,85.83
2023-03-29T05:35:40.903Z,85.57
2023-03-29T05:38:09.018Z,85.38
2023-03-29T05:40:36.355Z,85.37
2023-03-29T05:43:12.283Z,85.41
2023-03-29T05:45:39.495Z,85.22
2023-03-29T05:48:06.683Z,85.47
2023-03-29T05:50:34.697Z,85.74
2023-03-29T05:53:01.704Z,86.00
2023-03-29T05:55:28.744Z,86.28
2023-03-29T05:57:55.938Z,86.41
2023-03-29T06:00:26.927Z,86.43
2023-03-29T06:03:21.205Z,86.35
2023-03-29T06:05:56.846Z,86.32
2023-03-29T06:08:24.340Z,86.47
2023-03-29T06:11:15.693Z,86.52
2023-03-29T06:14:19.121Z,86.50
2023-03-29T06:16:51.667Z,86.39
2023-03-29T06:19:19.353Z,86.38
2023-03-29T06:21:47.402Z,86.48
2023-03-29T06:24:19.029Z,86.62
2023-03-29T06:26:52.715Z,86.58
2023-03-29T06:29:19.853Z,86.24
2023-03-29T06:31:48.352Z,86.07
2023-03-29T06:34:38.080Z,86.13
2023-03-29T06:37:23.409Z,86.52
2023-03-29T06:39:59.860Z,86.84
2023-03-29T06:42:44.748Z,87.15
2023-03-29T06:45:38.855Z,87.33
2023-03-29T06:48:12.505Z,87.54
2023-03-29T06:50:41.150Z,87.47
2023-03-29T06:53:10.635Z,87.41
2023-03-29T06:55:39.483Z,86.81
2023-03-29T06:58:26.657Z,86.85
2023-03-29T07:01:00.998Z,87.19
2023-03-29T07:03:49.543Z,87.50
2023-03-29T07:06:20.749Z,87.51
2023-03-29T07:08:52.634Z,87.62
2023-03-29T07:11:59.218Z,87.96
2023-03-29T07:14:30.150Z,87.95
2023-03-29T07:16:58.698Z,87.84
2023-03-29T07:19:33.395Z,87.77
2023-03-29T07:22:03.327Z,87.87
2023-03-29T07:24:47.106Z,87.99
2023-03-29T07:27:14.729Z,88.13
2023-03-29T07:29:41.586Z,88.11
2023-03-29T07:32:08.945Z,88.06
2023-03-29T07:34:42.239Z,88.47
2023-03-29T07:37:14.884Z,88.51
2023-03-29T07:39:44.835Z,89.48
2023-03-29T07:42:37.648Z,90.15
2023-03-29T07:45:08.706Z,91.12
2023-03-29T07:47:44.884Z,91.27
2023-03-29T07:50:12.467Z,91.62
2023-03-29T07:52:39.738Z,91.48
2023-03-29T07:55:08.863Z,92.18
2023-03-29T07:58:01.740Z,92.11
2023-03-29T08:00:29.103Z,91.68
2023-03-29T08:03:19.095Z,91.92
2023-03-29T08:05:46.143Z,91.98
2023-03-29T08:08:15.408Z,91.66
2023-03-29T08:11:06.493Z,91.43
2023-03-29T08:13:43.675Z,91.55
2023-03-29T08:16:16.861Z,91.24
2023-03-29T08:18:51.244Z,91.31
2023-03-29T08:21:20.745Z,90.93
2023-03-29T08:23:49.780Z,91.24
2023-03-29T08:26:24.474Z,91.16
2023-03-29T08:28:52.195Z,90.73
2023-03-29T08:31:21.045Z,90.45
2023-03-29T08:33:48.220Z,90.33
2023-03-29T08:36:33.606Z,90.46
2023-03-29T08:39:08.328Z,90.18
2023-03-29T08:41:42.959Z,90.41
2023-03-29T08:44:10.914Z,90.55
2023-03-29T08:47:09.880Z,90.62
2023-03-29T08:49:47.233Z,90.28
2023-03-29T08:52:31.310Z,90.24
2023-03-29T08:55:05.850Z,90.28
2023-03-29T08:57:51.957Z,90.10
2023-03-29T09:01:01.598Z,89.76
2023-03-29T09:03:57.307Z,90.44
2023-03-29T09:06:36.136Z,90.03
2023-03-29T09:09:18.645Z,90.15
2023-03-29T09:11:56.762Z,89.47
2023-03-29T09:14:53.470Z,89.99
2023-03-29T09:17:29.708Z,89.76
2023-03-29T09:20:03.334Z,89.69
2023-03-29T09:22:46.812Z,89.32
2023-03-29T09:25:25.917Z,89.53
2023-03-29T09:28:05.464Z,88.83
2023-03-29T09:31:03.757Z,88.93
2023-03-29T09:33:43.092Z,88.51
2023-03-29T09:36:27.474Z,89.63
2023-03-29T09:38:55.857Z,89.70
2023-03-29T09:41:32.885Z,89.59
2023-03-29T09:44:12.698Z,89.21
2023-03-29T09:46:45.792Z,88.39
2023-03-29T09:49:19.129Z,88.42
2023-03-29T09:51:49.194Z,88.63
2023-03-29T09:54:17.680Z,88.92
2023-03-29T09:57:18.697Z,88.28
2023-03-29T09:59:48.699Z,88.15
2023-03-29T10:02:20.203Z,88.55
2023-03-29T10:04:55.547Z,89.04
2023-03-29T10:07:22.934Z,88.81
2023-03-29T10:09:56.342Z,88.79
2023-03-29T10:12:24.417Z,88.44
2023-03-29T10:14:54.249Z,89.54
2023-03-29T10:17:29.671Z,90.37
2023-03-29T10:20:00.942Z,90.51
2023-03-29T10:22:37.828Z,89.89
2023-03-29T10:25:13.555Z,90.05
2023-03-29T10:27:43.496Z,90.63
2023-03-29T10:30:18.934Z,90.37
2023-03-29T10:32:46.410Z,89.94
2023-03-29T10:35:21.648Z,91.05
2023-03-29T10:37:53.636Z,90.50
2023-03-29T10:40:26.292Z,90.42
2023-03-29T10:42:57.980Z,90.09
2023-03-29T10:45:35.042Z,89.64
2023-03-29T10:48:04.175Z,89.54
2023-03-29T10:50:38.298Z,90.02
2023-03-29T10:53:21.692Z,89.93
2023-03-29T10:56:07.881Z,89.47
2023-03-29T10:58:34.997Z,89.40
2023-03-29T11:01:03.109Z,89.46
2023-03-29T11:03:45.758Z,89.40
2023-03-29T11:06:34.930Z,88.97
2023-03-29T11:09:08.767Z,89.67
2023-03-29T11:12:15.151Z,89.31
2023-03-29T11:15:09.263Z,89.47
2023-03-29T11:17:53.645Z,89.13
2023-03-29T11:20:34.943Z,89.40
2023-03-29T11:23:16.751Z,89.92
2023-03-29T11:25:53.513Z,89.72
2023-03-29T11:28:42.408Z,89.63
2023-03-29T11:31:31.070Z,90.22
2023-03-29T11:34:15.769Z,90.09
2023-03-29T11:36:55.152Z,89.89
2023-03-29T11:39:47.150Z,90.55
2023-03-29T11:42:21.511Z,90.18
2023-03-29T11:44:54.649Z,90.55
2023-03-29T11:47:23.487Z,90.89
2023-03-29T11:49:58.476Z,90.22
2023-03-29T11:52:41.057Z,90.45
2023-03-29T11:55:23.777Z,89.99
2023-03-29T11:58:06.772Z,90.16
2023-03-29T12:00:58.025Z,90.76
2023-03-29T12:03:46.783Z,90.57
2023-03-29T12:06:20.399Z,90.66
2023-03-29T12:09:13.685Z,90.56
2023-03-29T12:11:59.348Z,90.19
2023-03-29T12:14:45.114Z,90.08
2023-03-29T12:17:18.290Z,89.78
2023-03-29T12:20:06.873Z,90.05
2023-03-29T12:22:38.742Z,90.44
2023-03-29T12:25:09.726Z,90.35
2023-03-29T12:27:52.913Z,90.57
2023-03-29T12:30:29.938Z,90.23
2023-03-29T12:33:27.967Z,90.44
2023-03-29T12:36:48.156Z,90.47
2023-03-29T12:39:36.939Z,90.41
2023-03-29T12:42:24.084Z,91.79
2023-03-29T12:45:20.670Z,91.05
2023-03-29T12:47:51.125Z,90.86
2023-03-29T12:50:34.996Z,90.37
2023-03-29T12:53:13.511Z,90.35
2023-03-29T12:55:43.705Z,90.24
2023-03-29T12:58:26.068Z,90.79
2023-03-29T13:01:34.007Z,91.34
2023-03-29T13:04:01.474Z,90.81
2023-03-29T13:06:53.746Z,90.68
2023-03-29T13:09:22.612Z,90.59
2023-03-29T13:11:59.758Z,90.95
2023-03-29T13:14:31.851Z,91.81
2023-03-29T13:17:18.314Z,92.08
2023-03-29T13:19:52.210Z,91.92
2023-03-29T13:22:44.318Z,92.11
2023-03-29T13:25:25.603Z,92.53
2023-03-29T13:28:21.718Z,92.55
2023-03-29T13:31:18.004Z,92.51
2023-03-29T13:33:57.620Z,92.99
2023-03-29T13:36:39.678Z,92.48
2023-03-29T13:39:07.698Z,92.04
2023-03-29T13:41:40.839Z,92.30
2023-03-29T13:44:23.246Z,92.29
2023-03-29T13:47:05.100Z,92.16
2023-03-29T13:49:34.207Z,91.40
2023-03-29T13:52:24.637Z,92.47
2023-03-29T13:55:02.011Z,92.30
2023-03-29T13:57:38.696Z,91.54
2023-03-29T14:00:12.015Z,91.84
2023-03-29T14:02:50.228Z,91.56
2023-03-29T14:05:21.833Z,91.68
2023-03-29T14:07:53.058Z,91.94
2023-03-29T14:10:27.663Z,91.86
2023-03-29T14:12:56.824Z,91.67
2023-03-29T14:15:27.790Z,91.44
2023-03-29T14:18:00.558Z,91.64
2023-03-29T14:20:28.806Z,91.30
2023-03-29T14:22:55.897Z,92.28
2023-03-29T14:25:23.119Z,92.23
2023-03-29T14:27:49.991Z,91.44
2023-03-29T14:30:27.684Z,92.01
2023-03-29T14:32:56.887Z,91.85
2023-03-29T14:35:31.321Z,92.05
2023-03-29T14:37:59.247Z,92.09
2023-03-29T14:40:27.909Z,91.75
2023-03-29T14:42:55.750Z,92.30
2023-03-29T14:45:25.765Z,92.30
2023-03-29T14:47:53.104Z,92.09
2023-03-29T14:50:28.620Z,92.71
2023-03-29T14:52:58.112Z,93.14
2023-03-29T14:55:25.358Z,92.69
2023-03-29T14:57:55.298Z,92.80
2023-03-29T15:00:30.348Z,91.92
2023-03-29T15:03:04.484Z,92.21
2023-03-29T15:05:42.503Z,92.32
2023-03-29T15:08:17.939Z,92.34
2023-03-29T15:10:45.147Z,92.15
2023-03-29T15:13:19.102Z,92.60
2023-03-29T15:15:46.442Z,93.24
2023-03-29T15:18:17.123Z,92.63
2023-03-29T15:20:45.205Z,93.39
2023-03-29T15:23:14.908Z,93.00
2023-03-29T15:25:58.279Z,93.67
2023-03-29T15:28:28.354Z,93.31
2023-03-29T15:33:38.443Z,92.79
2023-03-29T15:36:07.693Z,92.74
2023-03-29T15:38:44.092Z,92.18
2023-03-29T15:41:13.756Z,92.63
2023-03-29T15:43:41.474Z,92.84
2023-03-29T15:46:10.959Z,92.82
2023-03-29T15:48:37.858Z,92.58
2023-03-29T15:51:06.740Z,92.74
2023-03-29T15:53:34.111Z,93.15
2023-03-29T15:56:02.873Z,93.11
2023-03-29T15:58:32.615Z,93.14
2023-03-29T16:01:37.757Z,92.52
2023-03-29T16:04:12.099Z,92.57
2023-03-29T16:06:39.281Z,92.52
2023-03-29T16:09:07.224Z,92.75
2023-03-29T16:11:34.533Z,93.08
2023-03-29T16:14:03.041Z,93.22
2023-03-29T16:16:30.067Z,93.49
2023-03-29T16:18:56.912Z,92.61
2023-03-29T16:21:24.657Z,92.36
2023-03-29T16:23:51.816Z,92.95
2023-03-29T16:26:18.694Z,93.21
2023-03-29T16:28:45.652Z,93.17
2023-03-29T16:31:15.190Z,93.06
2023-03-29T16:33:42.226Z,93.48
2023-03-29T16:36:10.198Z,93.46
2023-03-29T16:38:37.221Z,93.38
2023-03-29T16:41:04.287Z,93.18
2023-03-29T16:43:31.714Z,93.11
2023-03-29T16:45:58.643Z,93.15
2023-03-29T16:48:27.190Z,93.48
2023-03-29T16:50:54.929Z,93.40
2023-03-29T16:53:23.747Z,93.62
2023-03-29T16:55:50.835Z,92.53
2023-03-29T16:58:17.846Z,92.63
2023-03-29T17:00:48.297Z,93.03
2023-03-29T17:03:16.459Z,92.27
2023-03-29T17:05:52.208Z,92.13
2023-03-29T17:08:21.315Z,92.24
2023-03-29T17:10:55.670Z,92.36
2023-03-29T17:13:24.168Z,92.60
2023-03-29T17:15:52.728Z,92.68
2023-03-29T17:18:24.876Z,92.98
2023-03-29T17:20:52.851Z,93.43
2023-03-29T17:23:19.827Z,93.07
2023-03-29T17:25:46.911Z,92.93
2023-03-29T17:28:17.016Z,93.21
2023-03-29T17:30:48.345Z,93.24
2023-03-29T17:33:15.947Z,93.32
2023-03-29T17:35:44.833Z,93.14
2023-03-29T17:38:12.666Z,92.98
2023-03-29T17:40:39.764Z,92.84
2023-03-29T17:43:06.775Z,93.00
2023-03-29T17:45:35.447Z,92.79
2023-03-29T17:48:05.593Z,93.23
2023-03-29T17:50:33.361Z,93.30
2023-03-29T17:53:00.355Z,93.37
2023-03-29T17:55:27.835Z,93.03
2023-03-29T17:57:55.628Z,93.60
2023-03-29T18:00:25.122Z,93.70
2023-03-29T18:02:53.350Z,93.73
2023-03-29T18:05:21.406Z,93.74
2023-03-29T18:07:49.013Z,93.56
2023-03-29T18:10:16.791Z,93.39
2023-03-29T18:12:45.352Z,93.73
2023-03-29T18:15:13.034Z,93.56
2023-03-29T18:17:41.126Z,93.68
2023-03-29T18:20:12.069Z,93.91
2023-03-29T18:22:42.732Z,93.88
2023-03-29T18:25:11.549Z,93.36
2023-03-29T18:27:39.907Z,93.69
2023-03-29T18:30:09.213Z,93.36
2023-03-29T18:32:37.162Z,94.07
2023-03-29T18:35:06.639Z,93.88
2023-03-29T18:37:34.294Z,93.59
2023-03-29T18:40:02.696Z,93.78
2023-03-29T18:42:30.280Z,93.69
2023-03-29T18:44:58.277Z,94.01
2023-03-29T18:47:26.019Z,93.93
2023-03-29T18:49:53.957Z,93.79
2023-03-29T18:52:21.623Z,93.53
2023-03-29T18:54:49.127Z,93.51
2023-03-29T18:57:16.099Z,93.33
2023-03-29T18:59:44.032Z,93.72
2023-03-29T19:02:11.480Z,93.95
2023-03-29T19:04:39.325Z,93.43
2023-03-29T19:07:06.955Z,93.88
2023-03-29T19:09:33.932Z,93.55
2023-03-29T19:12:00.764Z,92.95
2023-03-29T19:14:28.278Z,93.53
2023-03-29T19:16:55.786Z,93.78
2023-03-29T19:19:24.982Z,93.87
2023-03-29T19:21:52.999Z,93.74
2023-03-29T19:24:19.966Z,93.82
2023-03-29T19:26:48.045Z,93.75
2023-03-29T19:29:15.200Z,93.59
2023-03-29T19:31:42.178Z,93.78
2023-03-29T19:34:12.342Z,94.01
2023-03-29T19:36:39.897Z,93.90
2023-03-29T19:39:07.265Z,93.74
2023-03-29T19:41:34.178Z,93.87
2023-03-29T19:44:01.410Z,94.04
2023-03-29T19:46:29.088Z,94.06
2023-03-29T19:48:56.401Z,94.08
2023-03-29T19:51:24.033Z,94.13
2023-03-29T19:53:50.899Z,94.17
2023-03-29T19:56:18.123Z,93.95
2023-03-29T19:58:45.172Z,93.82
2023-03-29T20:01:12.627Z,93.56
2023-03-29T20:03:41.571Z,93.59
2023-03-29T20:06:10.865Z,93.49
2023-03-29T20:08:38.951Z,93.53
2023-03-29T20:11:10.588Z,93.24
2023-03-29T20:13:41.125Z,93.30
2023-03-29T20:16:11.118Z,92.85
2023-03-29T20:18:45.021Z,92.90
2023-03-29T20:21:14.231Z,92.88
2023-03-29T20:23:41.415Z,92.71
2023-03-29T20:26:08.651Z,92.76
2023-03-29T20:28:37.968Z,92.92
2023-03-29T20:31:08.271Z,93.31
2023-03-29T20:33:35.576Z,93.31
2023-03-29T20:36:02.783Z,93.17
2023-03-29T20:38:29.658Z,93.25
2023-03-29T20:40:56.660Z,93.23
2023-03-29T20:43:24.412Z,93.28
2023-03-29T20:45:53.923Z,92.85
2023-03-29T20:48:24.376Z,92.85
2023-03-29T20:50:51.985Z,92.88
2023-03-29T20:53:20.633Z,93.04
2023-03-29T20:55:48.240Z,93.12
2023-03-29T20:58:15.999Z,93.15
2023-03-29T21:00:43.955Z,93.14
2023-03-29T21:03:11.422Z,93.31
2023-03-29T21:05:38.994Z,93.25
2023-03-29T21:08:06.173Z,93.30
2023-03-29T21:10:33.510Z,93.44
2023-03-29T21:13:00.777Z,93.43
2023-03-29T21:15:30.531Z,93.55
2023-03-29T21:17:58.385Z,93.37
2023-03-29T21:20:25.764Z,93.53
2023-03-29T21:22:52.906Z,93.49
2023-03-29T21:25:19.889Z,93.48
2023-03-29T21:27:47.118Z,93.47
2023-03-29T21:30:14.200Z,93.91
2023-03-29T21:32:41.704Z,93.72
2023-03-29T21:35:09.512Z,93.98
2023-03-29T21:37:36.694Z,94.14
2023-03-29T21:40:10.756Z,94.23
2023-03-29T21:42:37.862Z,94.36
2023-03-29T21:45:05.179Z,94.51
2023-03-29T21:47:32.234Z,94.69
2023-03-29T21:49:59.038Z,94.45
2023-03-29T21:52:26.146Z,94.16
2023-03-29T21:54:52.975Z,94.02
2023-03-29T21:57:20.056Z,93.85
2023-03-29T21:59:46.974Z,93.72
2023-03-29T22:02:14.039Z,93.62
2023-03-29T22:05:33.934Z,93.50
2023-03-29T22:08:01.157Z,93.38
2023-03-29T22:10:28.054Z,93.46
2023-03-29T22:12:55.002Z,93.49
2023-03-29T22:15:22.015Z,93.48
2023-03-29T22:17:49.328Z,93.47
2023-03-29T22:20:18.573Z,93.40
2023-03-29T22:22:50.845Z,93.30
2023-03-29T22:25:19.295Z,93.34
2023-03-29T22:28:24.587Z,93.36
2023-03-29T22:30:51.567Z,93.37
2023-03-29T22:33:18.431Z,93.27
2023-03-29T22:35:45.768Z,93.27
2023-03-29T22:38:12.711Z,93.29
2023-03-29T22:40:42.666Z,93.30
2023-03-29T22:44:05.251Z,93.16
2023-03-29T22:46:32.584Z,93.14
2023-03-29T22:48:59.689Z,93.06
2023-03-29T22:51:27.524Z,93.12
2023-03-29T22:53:54.595Z,93.05
2023-03-29T22:56:22.100Z,93.08
2023-03-29T22:58:49.293Z,93.08
2023-03-29T23:01:16.270Z,93.07
2023-03-29T23:03:43.194Z,93.06
2023-03-29T23:06:10.361Z,92.94
2023-03-29T23:08:37.251Z,93.01
2023-03-29T23:11:04.928Z,93.04
2023-03-29T23:13:33.634Z,92.93
2023-03-29T23:16:01.855Z,92.88
2023-03-29T23:18:30.617Z,92.85
2023-03-29T23:20:59.110Z,92.90
2023-03-29T23:23:27.399Z,92.77
2023-03-29T23:25:55.944Z,92.70
2023-03-29T23:28:27.194Z,92.68
2023-03-29T23:31:06.408Z,92.71
2023-03-29T23:33:35.437Z,92.75
2023-03-29T23:36:04.997Z,92.72
2023-03-29T23:38:34.434Z,92.62
2023-03-29T23:41:03.859Z,92.45
2023-03-29T23:43:33.707Z,92.55
2023-03-29T23:46:05.944Z,92.40
2023-03-29T23:49:29.374Z,92.30
2023-03-29T23:52:02.802Z,92.06
2023-03-29T23:54:29.772Z,92.08
2023-03-29T23:56:56.624Z,91.95
2023-03-29T23:59:27.154Z,92.10
